createdAt,value
2023-05-14T00:00:05.355Z,66.85
2023-05-14T00:00:38.968Z,65.85
2023-05-14T00:01:10.594Z,66.82
2023-05-14T00:01:42.242Z,67.32
2023-05-14T00:02:14.903Z,67.47
2023-05-14T00:02:46.658Z,66.38
2023-05-14T00:03:18.699Z,66.07
2023-05-14T00:03:51.443Z,66.88
2023-05-14T00:04:23.568Z,65.80
2023-05-14T00:04:55.311Z,66.43
2023-05-14T00:05:28.029Z,65.85
2023-05-14T00:05:59.620Z,66.45
2023-05-14T00:06:33.128Z,68.55
2023-05-14T00:07:05.892Z,67.00
2023-05-14T00:07:37.501Z,66.80
2023-05-14T00:08:09.210Z,66.22
2023-05-14T00:08:43.225Z,66.93
2023-05-14T00:09:14.915Z,66.72
2023-05-14T00:09:46.538Z,66.95
2023-05-14T00:10:20.708Z,65.82
2023-05-14T00:10:52.480Z,65.05
2023-05-14T00:11:24.168Z,67.78
2023-05-14T00:11:56.904Z,65.68
2023-05-14T00:12:29.981Z,66.10
2023-05-14T00:13:01.946Z,65.40
2023-05-14T00:13:34.625Z,66.68
2023-05-14T00:14:06.333Z,66.45
2023-05-14T00:14:37.919Z,65.35
2023-05-14T00:15:10.923Z,65.63
2023-05-14T00:15:42.605Z,66.10
2023-05-14T00:16:14.343Z,65.78
2023-05-14T00:16:46.920Z,66.10
2023-05-14T00:17:18.510Z,67.45
2023-05-14T00:17:50.533Z,66.07
2023-05-14T00:18:23.130Z,65.35
2023-05-14T00:18:54.823Z,65.03
2023-05-14T00:19:26.478Z,66.47
2023-05-14T00:19:59.486Z,66.18
2023-05-14T00:20:32.103Z,66.03
2023-05-14T00:21:03.768Z,66.30
2023-05-14T00:21:35.465Z,65.28
2023-05-14T00:22:08.086Z,66.40
2023-05-14T00:22:40.168Z,66.10
2023-05-14T00:23:11.804Z,67.03
2023-05-14T00:23:45.801Z,66.10
2023-05-14T00:24:17.456Z,66.20
2023-05-14T00:24:49.171Z,66.45
2023-05-14T00:25:20.806Z,65.97
2023-05-14T00:25:53.373Z,66.60
2023-05-14T00:26:25.008Z,65.93
2023-05-14T00:26:56.625Z,67.05
2023-05-14T00:27:29.217Z,66.80
2023-05-14T00:28:00.947Z,65.80
2023-05-14T00:28:32.611Z,65.63
2023-05-14T00:29:05.226Z,66.80
2023-05-14T00:29:36.862Z,66.10
2023-05-14T00:30:08.784Z,65.82
2023-05-14T00:30:41.497Z,65.57
2023-05-14T00:31:14.043Z,66.10
2023-05-14T00:31:45.955Z,66.18
2023-05-14T00:32:18.605Z,65.90
2023-05-14T00:32:50.270Z,65.68
2023-05-14T00:33:21.975Z,66.00
2023-05-14T00:33:53.776Z,66.15
2023-05-14T00:34:26.472Z,66.50
2023-05-14T00:34:58.175Z,65.60
2023-05-14T00:35:29.954Z,65.75
2023-05-14T00:36:03.193Z,65.20
2023-05-14T00:36:34.828Z,66.45
2023-05-14T00:37:06.452Z,65.80
2023-05-14T00:37:39.032Z,66.60
2023-05-14T00:38:16.720Z,66.70
2023-05-14T00:38:51.057Z,67.72
2023-05-14T00:39:22.697Z,66.20
2023-05-14T00:39:54.328Z,66.95
2023-05-14T00:40:27.713Z,65.47
2023-05-14T00:40:59.360Z,65.95
2023-05-14T00:41:30.983Z,66.78
2023-05-14T00:42:03.547Z,65.88
2023-05-14T00:42:35.273Z,67.45
2023-05-14T00:43:06.968Z,65.95
2023-05-14T00:43:39.623Z,66.55
2023-05-14T00:44:11.346Z,65.78
2023-05-14T00:44:42.969Z,67.82
2023-05-14T00:45:15.873Z,66.25
2023-05-14T00:45:47.721Z,66.28
2023-05-14T00:46:19.644Z,66.60
2023-05-14T00:46:53.386Z,66.13
2023-05-14T00:47:25.096Z,66.57
2023-05-14T00:47:56.779Z,66.05
2023-05-14T00:48:29.534Z,66.43
2023-05-14T00:49:01.178Z,64.88
2023-05-14T00:49:32.932Z,67.00
2023-05-14T00:50:06.501Z,66.00
2023-05-14T00:50:38.505Z,66.40
2023-05-14T00:51:11.736Z,66.53
2023-05-14T00:51:46.729Z,66.93
2023-05-14T00:52:19.822Z,67.00
2023-05-14T00:52:51.472Z,66.50
2023-05-14T00:53:23.064Z,66.78
2023-05-14T00:53:57.287Z,66.15
2023-05-14T00:54:29.661Z,66.78
2023-05-14T00:55:03.140Z,66.57
2023-05-14T00:55:35.789Z,65.57
2023-05-14T00:56:08.373Z,67.72
2023-05-14T00:56:40.092Z,66.50
2023-05-14T00:57:12.762Z,66.55
2023-05-14T00:57:44.624Z,66.47
2023-05-14T00:58:16.657Z,66.28
2023-05-14T00:58:49.270Z,66.80
2023-05-14T00:59:20.890Z,67.13
2023-05-14T00:59:52.880Z,66.33
2023-05-14T01:00:25.738Z,66.43
2023-05-14T01:00:57.620Z,66.00
2023-05-14T01:01:29.367Z,66.18
2023-05-14T01:02:02.216Z,67.15
2023-05-14T01:02:33.910Z,66.03
2023-05-14T01:03:07.579Z,65.68
2023-05-14T01:03:40.512Z,65.90
2023-05-14T01:04:12.654Z,67.10
2023-05-14T01:04:44.367Z,67.00
2023-05-14T01:05:16.010Z,66.65
2023-05-14T01:05:54.757Z,67.45
2023-05-14T01:06:29.057Z,66.50
2023-05-14T01:07:07.288Z,67.40
2023-05-14T01:07:44.780Z,68.10
2023-05-14T01:08:21.817Z,66.28
2023-05-14T01:08:58.599Z,67.00
2023-05-14T01:09:35.940Z,67.73
2023-05-14T01:10:09.385Z,69.22
2023-05-14T01:10:44.698Z,67.20
2023-05-14T01:11:21.330Z,67.68
2023-05-14T01:11:55.610Z,67.22
2023-05-14T01:12:29.923Z,67.43
2023-05-14T01:13:05.815Z,66.38
2023-05-14T01:13:44.218Z,66.65
2023-05-14T01:14:21.282Z,67.72
2023-05-14T01:14:55.492Z,66.65
2023-05-14T01:15:29.927Z,69.03
2023-05-14T01:16:03.661Z,66.22
2023-05-14T01:16:37.396Z,67.40
2023-05-14T01:17:11.999Z,67.55
2023-05-14T01:17:46.319Z,66.43
2023-05-14T01:18:18.870Z,66.88
2023-05-14T01:18:51.998Z,66.93
2023-05-14T01:19:27.595Z,66.85
2023-05-14T01:20:00.287Z,67.25
2023-05-14T01:20:32.053Z,67.43
2023-05-14T01:21:04.780Z,68.00
2023-05-14T01:21:40.391Z,66.45
2023-05-14T01:22:12.305Z,66.53
2023-05-14T01:22:44.892Z,66.68
2023-05-14T01:23:16.561Z,66.18
2023-05-14T01:23:48.436Z,66.93
2023-05-14T01:24:21.128Z,68.85
2023-05-14T01:24:52.785Z,67.88
2023-05-14T01:25:24.589Z,68.40
2023-05-14T01:25:57.267Z,67.93
2023-05-14T01:26:31.398Z,68.35
2023-05-14T01:27:07.158Z,67.13
2023-05-14T01:27:43.716Z,68.28
2023-05-14T01:28:17.873Z,67.55
2023-05-14T01:28:51.650Z,67.10
2023-05-14T01:29:24.613Z,67.55
2023-05-14T01:29:59.201Z,67.35
2023-05-14T01:30:32.260Z,67.93
2023-05-14T01:31:07.902Z,67.03
2023-05-14T01:31:40.884Z,67.30
2023-05-14T01:32:13.535Z,67.88
2023-05-14T01:32:49.084Z,68.35
2023-05-14T01:33:21.809Z,68.60
2023-05-14T01:33:54.254Z,67.00
2023-05-14T01:34:29.439Z,68.47
2023-05-14T01:35:01.299Z,68.40
2023-05-14T01:35:33.310Z,69.75
2023-05-14T01:36:06.297Z,69.63
2023-05-14T01:36:40.164Z,69.28
2023-05-14T01:37:12.484Z,68.38
2023-05-14T01:37:45.402Z,68.18
2023-05-14T01:38:18.911Z,69.63
2023-05-14T01:38:51.182Z,69.28
2023-05-14T01:39:26.035Z,68.82
2023-05-14T01:39:57.700Z,69.93
2023-05-14T01:40:29.856Z,68.63
2023-05-14T01:41:01.798Z,68.07
2023-05-14T01:41:34.706Z,69.32
2023-05-14T01:42:07.319Z,68.50
2023-05-14T01:42:39.921Z,69.17
2023-05-14T01:43:11.920Z,68.10
2023-05-14T01:43:43.941Z,69.75
2023-05-14T01:44:16.020Z,68.75
2023-05-14T01:44:48.659Z,69.43
2023-05-14T01:45:20.607Z,69.32
2023-05-14T01:45:52.420Z,69.50
2023-05-14T01:46:25.276Z,68.97
2023-05-14T01:46:56.983Z,69.38
2023-05-14T01:47:28.600Z,69.57
2023-05-14T01:48:01.516Z,69.18
2023-05-14T01:48:33.771Z,67.93
2023-05-14T01:49:05.430Z,68.47
2023-05-14T01:49:38.200Z,68.05
2023-05-14T01:50:10.550Z,70.00
2023-05-14T01:50:42.208Z,68.25
2023-05-14T01:51:14.729Z,68.63
2023-05-14T01:51:49.065Z,67.90
2023-05-14T01:52:21.263Z,68.35
2023-05-14T01:52:56.269Z,69.32
2023-05-14T01:53:28.863Z,69.10
2023-05-14T01:54:00.686Z,68.45
2023-05-14T01:54:32.342Z,68.72
2023-05-14T01:55:05.144Z,68.28
2023-05-14T01:55:37.723Z,69.65
2023-05-14T01:56:09.373Z,69.40
2023-05-14T01:56:41.848Z,70.22
2023-05-14T01:57:13.487Z,70.45
2023-05-14T01:57:46.147Z,69.60
2023-05-14T01:58:18.139Z,70.70
2023-05-14T01:58:49.786Z,68.60
2023-05-14T01:59:22.433Z,68.88
2023-05-14T01:59:54.051Z,68.88
2023-05-14T02:00:25.925Z,68.95
2023-05-14T02:00:58.791Z,69.18
2023-05-14T02:01:30.671Z,69.55
2023-05-14T02:02:02.462Z,70.10
2023-05-14T02:02:35.188Z,70.10
2023-05-14T02:03:06.921Z,70.60
2023-05-14T02:03:39.254Z,70.20
2023-05-14T02:04:11.982Z,70.03
2023-05-14T02:04:46.664Z,69.07
2023-05-14T02:05:18.726Z,69.28
2023-05-14T02:05:51.335Z,70.43
2023-05-14T02:06:22.949Z,68.90
2023-05-14T02:06:56.037Z,69.88
2023-05-14T02:07:30.517Z,71.05
2023-05-14T02:08:02.194Z,70.15
2023-05-14T02:08:33.835Z,68.60
2023-05-14T02:09:06.453Z,71.53
2023-05-14T02:09:38.497Z,70.32
2023-05-14T02:10:11.354Z,71.30
2023-05-14T02:10:44.024Z,70.50
2023-05-14T02:11:15.815Z,69.95
2023-05-14T02:11:47.710Z,71.55
2023-05-14T02:12:20.364Z,70.70
2023-05-14T02:12:52.015Z,70.32
2023-05-14T02:13:23.612Z,69.53
2023-05-14T02:13:56.195Z,71.32
2023-05-14T02:14:27.939Z,71.18
2023-05-14T02:14:59.596Z,71.23
2023-05-14T02:15:32.775Z,70.05
2023-05-14T02:16:06.164Z,69.78
2023-05-14T02:16:37.809Z,69.18
2023-05-14T02:17:09.507Z,71.90
2023-05-14T02:17:41.291Z,68.50
2023-05-14T02:18:16.148Z,70.95
2023-05-14T02:18:48.020Z,70.78
2023-05-14T02:19:19.738Z,68.55
2023-05-14T02:19:52.717Z,71.43
2023-05-14T02:20:24.603Z,70.20
2023-05-14T02:20:57.437Z,71.18
2023-05-14T02:21:30.034Z,70.75
2023-05-14T02:22:03.189Z,70.30
2023-05-14T02:22:34.828Z,70.90
2023-05-14T02:23:07.404Z,71.20
2023-05-14T02:23:41.902Z,72.72
2023-05-14T02:24:15.022Z,70.15
2023-05-14T02:24:46.740Z,71.10
2023-05-14T02:25:18.462Z,71.75
2023-05-14T02:25:51.841Z,72.35
2023-05-14T02:26:23.607Z,70.68
2023-05-14T02:26:55.585Z,71.95
2023-05-14T02:27:29.141Z,71.40
2023-05-14T02:28:01.257Z,72.57
2023-05-14T02:28:33.204Z,71.38
2023-05-14T02:29:06.143Z,72.97
2023-05-14T02:29:38.148Z,72.15
2023-05-14T02:30:11.406Z,72.82
2023-05-14T02:30:44.927Z,73.68
2023-05-14T02:31:19.315Z,73.05
2023-05-14T02:31:51.346Z,71.65
2023-05-14T02:32:24.539Z,72.20
2023-05-14T02:32:57.239Z,71.07
2023-05-14T02:33:29.297Z,71.80
2023-05-14T02:34:02.850Z,71.90
2023-05-14T02:34:34.783Z,72.18
2023-05-14T02:35:11.872Z,72.13
2023-05-14T02:35:45.167Z,71.95
2023-05-14T02:36:18.692Z,72.53
2023-05-14T02:36:50.677Z,72.10
2023-05-14T02:37:24.980Z,72.10
2023-05-14T02:37:57.042Z,74.03
2023-05-14T02:38:28.995Z,73.68
2023-05-14T02:39:02.910Z,73.78
2023-05-14T02:39:34.799Z,73.38
2023-05-14T02:40:07.971Z,73.03
2023-05-14T02:40:40.786Z,72.43
2023-05-14T02:41:12.657Z,71.40
2023-05-14T02:41:44.562Z,74.45
2023-05-14T02:42:17.540Z,74.88
2023-05-14T02:42:49.476Z,71.95
2023-05-14T02:43:21.371Z,74.32
2023-05-14T02:43:54.391Z,72.32
2023-05-14T02:44:26.488Z,74.13
2023-05-14T02:44:58.405Z,73.45
2023-05-14T02:45:30.403Z,72.28
2023-05-14T02:46:03.691Z,74.53
2023-05-14T02:46:35.666Z,70.82
2023-05-14T02:47:07.718Z,73.20
2023-05-14T02:47:40.730Z,72.13
2023-05-14T02:48:12.942Z,73.43
2023-05-14T02:48:44.992Z,72.63
2023-05-14T02:49:17.898Z,73.43
2023-05-14T02:49:50.004Z,72.95
2023-05-14T02:50:22.092Z,73.10
2023-05-14T02:50:55.120Z,72.93
2023-05-14T02:51:27.371Z,73.53
2023-05-14T02:52:00.911Z,72.70
2023-05-14T02:52:35.229Z,74.85
2023-05-14T02:53:08.096Z,74.10
2023-05-14T02:53:40.978Z,71.80
2023-05-14T02:54:12.889Z,72.38
2023-05-14T02:54:44.833Z,72.05
2023-05-14T02:55:17.792Z,72.30
2023-05-14T02:55:49.743Z,74.55
2023-05-14T02:56:22.329Z,71.47
2023-05-14T02:56:55.267Z,72.10
2023-05-14T02:57:27.208Z,71.72
2023-05-14T02:57:59.167Z,71.57
2023-05-14T02:58:32.160Z,71.93
2023-05-14T02:59:04.524Z,72.38
2023-05-14T02:59:37.001Z,71.88
2023-05-14T03:00:11.886Z,73.63
2023-05-14T03:00:44.217Z,72.45
2023-05-14T03:01:18.687Z,72.18
2023-05-14T03:01:52.518Z,72.25
2023-05-14T03:02:25.430Z,71.72
2023-05-14T03:02:58.084Z,71.72
2023-05-14T03:03:31.841Z,72.30
2023-05-14T03:04:04.702Z,71.00
2023-05-14T03:04:39.724Z,71.35
2023-05-14T03:05:12.940Z,71.45
2023-05-14T03:05:45.231Z,71.20
2023-05-14T03:06:17.330Z,71.40
2023-05-14T03:06:49.472Z,70.60
2023-05-14T03:07:22.409Z,72.70
2023-05-14T03:07:55.831Z,72.20
2023-05-14T03:08:27.955Z,71.45
2023-05-14T03:08:59.874Z,71.15
2023-05-14T03:09:32.543Z,72.55
2023-05-14T03:10:04.539Z,71.05
2023-05-14T03:10:36.417Z,71.53
2023-05-14T03:11:09.047Z,71.45
2023-05-14T03:11:40.869Z,70.18
2023-05-14T03:12:14.337Z,70.82
2023-05-14T03:12:46.843Z,71.35
2023-05-14T03:13:20.761Z,70.65
2023-05-14T03:13:54.987Z,69.90
2023-05-14T03:14:26.603Z,71.05
2023-05-14T03:14:58.277Z,70.65
2023-05-14T03:15:31.367Z,72.22
2023-05-14T03:16:03.010Z,69.70
2023-05-14T03:16:34.677Z,69.38
2023-05-14T03:17:08.179Z,69.97
2023-05-14T03:17:39.950Z,69.82
2023-05-14T03:18:11.900Z,71.43
2023-05-14T03:18:45.160Z,71.50
2023-05-14T03:19:16.984Z,70.50
2023-05-14T03:19:48.892Z,69.70
2023-05-14T03:20:21.824Z,69.68
2023-05-14T03:20:53.766Z,69.40
2023-05-14T03:21:27.283Z,70.95
2023-05-14T03:22:00.135Z,71.20
2023-05-14T03:22:31.799Z,68.68
2023-05-14T03:23:04.973Z,69.43
2023-05-14T03:23:37.996Z,71.32
2023-05-14T03:24:10.025Z,70.25
2023-05-14T03:24:42.797Z,69.70
2023-05-14T03:25:16.388Z,71.03
2023-05-14T03:25:47.986Z,69.93
2023-05-14T03:26:19.948Z,68.78
2023-05-14T03:26:55.966Z,70.45
2023-05-14T03:27:27.649Z,70.13
2023-05-14T03:27:59.473Z,70.35
2023-05-14T03:28:31.389Z,69.13
2023-05-14T03:29:05.600Z,71.45
2023-05-14T03:29:37.353Z,69.53
2023-05-14T03:30:09.617Z,70.30
2023-05-14T03:30:42.540Z,70.22
2023-05-14T03:31:15.167Z,71.00
2023-05-14T03:31:46.892Z,70.28
2023-05-14T03:32:19.669Z,70.93
2023-05-14T03:32:51.943Z,69.15
2023-05-14T03:33:24.130Z,70.18
2023-05-14T03:33:56.905Z,69.57
2023-05-14T03:34:28.695Z,68.78
2023-05-14T03:35:04.061Z,69.50
2023-05-14T03:35:38.174Z,70.10
2023-05-14T03:36:11.060Z,69.90
2023-05-14T03:36:42.980Z,69.03
2023-05-14T03:37:14.596Z,68.43
2023-05-14T03:37:47.287Z,69.45
2023-05-14T03:38:20.371Z,68.80
2023-05-14T03:38:52.013Z,70.15
2023-05-14T03:39:24.705Z,69.83
2023-05-14T03:39:56.357Z,70.10
2023-05-14T03:40:28.014Z,69.45
2023-05-14T03:41:00.717Z,70.18
2023-05-14T03:41:32.508Z,70.78
2023-05-14T03:42:04.531Z,69.68
2023-05-14T03:42:37.258Z,70.75
2023-05-14T03:43:08.953Z,70.85
2023-05-14T03:43:41.408Z,68.85
2023-05-14T03:44:13.227Z,69.28
2023-05-14T03:44:46.173Z,69.78
2023-05-14T03:45:17.865Z,69.97
2023-05-14T03:45:52.545Z,68.53
2023-05-14T03:46:25.549Z,70.43
2023-05-14T03:46:57.227Z,69.18
2023-05-14T03:47:29.044Z,71.60
2023-05-14T03:48:01.791Z,69.75
2023-05-14T03:48:35.129Z,68.45
2023-05-14T03:49:10.186Z,70.30
2023-05-14T03:49:41.994Z,70.60
2023-05-14T03:50:16.868Z,69.82
2023-05-14T03:50:48.725Z,70.07
2023-05-14T03:51:20.376Z,69.95
2023-05-14T03:51:52.992Z,70.22
2023-05-14T03:52:24.825Z,69.43
2023-05-14T03:52:56.575Z,69.55
2023-05-14T03:53:29.624Z,70.47
2023-05-14T03:54:02.791Z,69.82
2023-05-14T03:54:34.678Z,70.53
2023-05-14T03:55:06.970Z,69.35
2023-05-14T03:55:39.733Z,69.53
2023-05-14T03:56:15.352Z,70.15
2023-05-14T03:56:47.613Z,69.03
2023-05-14T03:57:20.227Z,70.80
2023-05-14T03:57:51.905Z,70.80
2023-05-14T03:58:23.555Z,69.60
2023-05-14T03:58:56.218Z,68.32
2023-05-14T03:59:27.808Z,70.00
2023-05-14T03:59:59.468Z,69.15
2023-05-14T04:00:32.371Z,69.65
2023-05-14T04:01:04.335Z,69.70
2023-05-14T04:01:35.920Z,69.03
2023-05-14T04:02:08.628Z,69.10
2023-05-14T04:02:40.372Z,70.78
2023-05-14T04:03:12.212Z,70.82
2023-05-14T04:03:45.170Z,69.97
2023-05-14T04:04:18.193Z,69.65
2023-05-14T04:04:49.957Z,70.05
2023-05-14T04:05:25.633Z,68.25
2023-05-14T04:05:57.293Z,68.53
2023-05-14T04:06:29.041Z,70.72
2023-05-14T04:07:01.700Z,68.57
2023-05-14T04:07:34.048Z,69.75
2023-05-14T04:08:05.917Z,70.72
2023-05-14T04:08:39.884Z,69.65
2023-05-14T04:09:11.950Z,70.38
2023-05-14T04:09:43.593Z,68.88
2023-05-14T04:10:16.571Z,69.97
2023-05-14T04:10:48.212Z,68.70
2023-05-14T04:11:19.977Z,70.32
2023-05-14T04:11:54.510Z,69.25
2023-05-14T04:12:26.770Z,69.40
2023-05-14T04:12:59.020Z,68.88
2023-05-14T04:13:35.930Z,69.18
2023-05-14T04:14:07.724Z,71.20
2023-05-14T04:14:39.491Z,69.85
2023-05-14T04:15:12.844Z,69.25
2023-05-14T04:15:44.539Z,71.05
2023-05-14T04:16:16.338Z,68.70
2023-05-14T04:16:49.100Z,69.78
2023-05-14T04:17:20.899Z,67.70
2023-05-14T04:17:53.593Z,69.63
2023-05-14T04:18:26.428Z,71.47
2023-05-14T04:18:58.293Z,70.97
2023-05-14T04:19:29.975Z,69.72
2023-05-14T04:20:03.180Z,69.78
2023-05-14T04:20:34.872Z,69.15
2023-05-14T04:21:09.638Z,68.35
2023-05-14T04:21:42.293Z,68.97
2023-05-14T04:22:13.965Z,70.97
2023-05-14T04:22:45.752Z,68.20
2023-05-14T04:23:18.374Z,69.05
2023-05-14T04:23:51.601Z,69.72
2023-05-14T04:24:24.220Z,69.55
2023-05-14T04:24:55.842Z,67.63
2023-05-14T04:25:27.512Z,67.75
2023-05-14T04:26:00.232Z,68.20
2023-05-14T04:26:31.852Z,69.97
2023-05-14T04:27:04.163Z,67.25
2023-05-14T04:27:36.823Z,69.75
2023-05-14T04:28:08.512Z,68.13
2023-05-14T04:28:40.515Z,68.97
2023-05-14T04:29:13.095Z,68.28
2023-05-14T04:29:44.754Z,67.68
2023-05-14T04:30:16.566Z,68.43
2023-05-14T04:30:49.418Z,68.43
2023-05-14T04:31:21.239Z,68.57
2023-05-14T04:31:53.449Z,70.10
2023-05-14T04:32:26.550Z,68.82
2023-05-14T04:32:58.509Z,69.43
2023-05-14T04:33:30.650Z,70.10
2023-05-14T04:34:03.622Z,68.18
2023-05-14T04:34:35.548Z,69.60
2023-05-14T04:35:09.220Z,68.53
2023-05-14T04:35:42.182Z,68.68
2023-05-14T04:36:14.730Z,69.40
2023-05-14T04:36:46.628Z,68.30
2023-05-14T04:37:19.569Z,70.20
2023-05-14T04:37:51.540Z,68.10
2023-05-14T04:38:23.632Z,66.85
2023-05-14T04:38:58.025Z,68.57
2023-05-14T04:39:30.059Z,67.05
2023-05-14T04:40:02.125Z,69.28
2023-05-14T04:40:35.108Z,68.13
2023-05-14T04:41:07.286Z,68.90
2023-05-14T04:41:39.324Z,68.30
2023-05-14T04:42:12.326Z,68.93
2023-05-14T04:42:44.181Z,68.38
2023-05-14T04:43:17.536Z,68.28
2023-05-14T04:43:50.811Z,68.03
2023-05-14T04:44:23.789Z,68.75
2023-05-14T04:44:55.815Z,68.95
2023-05-14T04:45:27.725Z,69.55
2023-05-14T04:46:00.751Z,68.40
2023-05-14T04:46:32.956Z,69.22
2023-05-14T04:47:05.785Z,67.22
2023-05-14T04:47:38.673Z,69.22
2023-05-14T04:48:10.818Z,68.95
2023-05-14T04:48:42.872Z,68.60
2023-05-14T04:49:15.851Z,68.25
2023-05-14T04:49:48.031Z,67.80
2023-05-14T04:50:20.077Z,68.15
2023-05-14T04:50:53.260Z,68.10
2023-05-14T04:51:26.329Z,68.93
2023-05-14T04:51:58.478Z,68.45
2023-05-14T04:52:31.576Z,68.88
2023-05-14T04:53:03.445Z,68.80
2023-05-14T04:53:35.435Z,68.27
2023-05-14T04:54:10.109Z,69.60
2023-05-14T04:54:42.064Z,68.30
2023-05-14T04:55:14.433Z,68.78
2023-05-14T04:55:47.401Z,69.55
2023-05-14T04:56:19.407Z,67.43
2023-05-14T04:56:51.336Z,68.03
2023-05-14T04:57:24.354Z,69.45
2023-05-14T04:57:56.474Z,67.82
2023-05-14T04:58:29.214Z,69.35
2023-05-14T04:59:01.108Z,68.78
2023-05-14T04:59:34.298Z,68.97
2023-05-14T05:00:07.865Z,67.28
2023-05-14T05:00:40.859Z,68.50
2023-05-14T05:01:13.993Z,67.72
2023-05-14T05:01:46.105Z,68.43
2023-05-14T05:02:18.086Z,69.28
2023-05-14T05:02:51.253Z,67.80
2023-05-14T05:03:23.230Z,69.90
2023-05-14T05:03:58.208Z,67.85
2023-05-14T05:04:31.145Z,70.18
2023-05-14T05:05:04.186Z,67.38
2023-05-14T05:05:36.243Z,67.90
2023-05-14T05:06:09.299Z,68.70
2023-05-14T05:06:41.188Z,68.00
2023-05-14T05:07:13.259Z,69.20
2023-05-14T05:07:46.187Z,68.57
2023-05-14T05:08:18.094Z,68.25
2023-05-14T05:08:50.064Z,67.53
2023-05-14T05:09:24.313Z,69.13
2023-05-14T05:09:56.237Z,67.32
2023-05-14T05:10:28.166Z,68.55
2023-05-14T05:11:01.053Z,67.85
2023-05-14T05:11:32.950Z,67.78
2023-05-14T05:12:08.010Z,68.43
2023-05-14T05:12:40.925Z,68.47
2023-05-14T05:13:12.816Z,68.80
2023-05-14T05:13:44.745Z,66.88
2023-05-14T05:14:17.811Z,67.75
2023-05-14T05:14:49.685Z,68.45
2023-05-14T05:15:23.701Z,67.27
2023-05-14T05:15:57.223Z,67.10
2023-05-14T05:16:29.342Z,67.50
2023-05-14T05:17:02.279Z,68.65
2023-05-14T05:17:34.637Z,67.88
2023-05-14T05:18:06.957Z,67.90
2023-05-14T05:18:40.088Z,66.65
2023-05-14T05:19:12.869Z,68.75
2023-05-14T05:19:44.933Z,67.10
2023-05-14T05:20:17.269Z,66.85
2023-05-14T05:20:50.236Z,67.78
2023-05-14T05:21:22.194Z,68.10
2023-05-14T05:21:55.087Z,67.53
2023-05-14T05:22:27.196Z,67.30
2023-05-14T05:22:59.501Z,67.43
2023-05-14T05:23:32.455Z,66.60
2023-05-14T05:24:04.892Z,67.32
2023-05-14T05:24:38.300Z,66.82
2023-05-14T05:25:12.056Z,66.80
2023-05-14T05:25:46.773Z,67.50
2023-05-14T05:26:18.751Z,67.38
2023-05-14T05:26:51.923Z,66.65
2023-05-14T05:27:25.033Z,68.10
2023-05-14T05:27:56.934Z,67.55
2023-05-14T05:28:28.829Z,66.80
2023-05-14T05:29:02.009Z,66.43
2023-05-14T05:29:34.999Z,66.30
2023-05-14T05:30:08.439Z,67.68
2023-05-14T05:30:45.149Z,67.38
2023-05-14T05:31:19.665Z,68.37
2023-05-14T05:31:52.262Z,67.35
2023-05-14T05:32:27.448Z,66.25
2023-05-14T05:32:59.552Z,67.18
2023-05-14T05:33:31.610Z,67.18
2023-05-14T05:34:05.126Z,67.03
2023-05-14T05:34:37.175Z,67.40
2023-05-14T05:35:09.946Z,67.70
2023-05-14T05:35:44.526Z,67.87
2023-05-14T05:36:16.569Z,66.32
2023-05-14T05:36:48.481Z,69.05
2023-05-14T05:37:21.402Z,66.38
2023-05-14T05:37:53.380Z,67.35
2023-05-14T05:38:25.380Z,68.22
2023-05-14T05:38:58.367Z,69.60
2023-05-14T05:39:35.155Z,68.30
2023-05-14T05:40:14.079Z,67.05
2023-05-14T05:40:50.030Z,67.97
2023-05-14T05:41:22.310Z,67.78
2023-05-14T05:41:54.495Z,67.70
2023-05-14T05:42:26.526Z,67.25
2023-05-14T05:42:59.452Z,68.53
2023-05-14T05:43:33.513Z,66.85
2023-05-14T05:44:05.744Z,67.78
2023-05-14T05:44:38.757Z,67.25
2023-05-14T05:45:11.278Z,68.15
2023-05-14T05:45:43.295Z,67.35
2023-05-14T05:46:16.362Z,67.07
2023-05-14T05:46:48.373Z,68.28
2023-05-14T05:47:20.521Z,67.78
2023-05-14T05:47:53.560Z,67.55
2023-05-14T05:48:25.496Z,68.35
2023-05-14T05:48:57.456Z,67.30
2023-05-14T05:49:30.368Z,67.25
2023-05-14T05:50:02.284Z,68.28
2023-05-14T05:50:34.220Z,67.65
2023-05-14T05:51:07.456Z,68.22
2023-05-14T05:51:39.357Z,67.10
2023-05-14T05:52:11.401Z,67.45
2023-05-14T05:52:46.610Z,68.47
2023-05-14T05:53:18.993Z,67.80
2023-05-14T05:53:51.145Z,67.38
2023-05-14T05:54:25.453Z,66.68
2023-05-14T05:54:57.337Z,68.10
2023-05-14T05:55:30.643Z,67.55
2023-05-14T05:56:03.679Z,70.30
2023-05-14T05:56:35.664Z,68.10
2023-05-14T05:57:07.690Z,67.45
2023-05-14T05:57:40.650Z,69.40
2023-05-14T05:58:17.176Z,69.75
2023-05-14T05:58:49.326Z,67.38
2023-05-14T05:59:22.300Z,68.03
2023-05-14T05:59:54.550Z,68.28
2023-05-14T06:00:26.858Z,67.97
2023-05-14T06:01:00.340Z,67.85
2023-05-14T06:01:32.333Z,69.32
2023-05-14T06:02:04.756Z,69.93
2023-05-14T06:02:37.789Z,71.78
2023-05-14T06:03:09.884Z,71.43
2023-05-14T06:03:41.922Z,70.20
2023-05-14T06:04:14.890Z,71.47
2023-05-14T06:04:47.328Z,70.93
2023-05-14T06:05:19.547Z,70.50
2023-05-14T06:05:52.989Z,70.55
2023-05-14T06:06:24.977Z,71.00
2023-05-14T06:06:56.941Z,73.15
2023-05-14T06:07:29.814Z,72.78
2023-05-14T06:08:01.929Z,69.93
2023-05-14T06:08:33.812Z,69.72
2023-05-14T06:09:08.836Z,69.15
2023-05-14T06:09:40.719Z,72.47
2023-05-14T06:10:12.669Z,69.72
2023-05-14T06:10:47.651Z,69.68
2023-05-14T06:11:19.800Z,72.38
2023-05-14T06:11:51.741Z,72.28
2023-05-14T06:12:24.657Z,73.45
2023-05-14T06:12:56.622Z,69.72
2023-05-14T06:13:28.557Z,70.30
2023-05-14T06:14:01.425Z,71.03
2023-05-14T06:14:33.576Z,71.60
2023-05-14T06:15:06.603Z,71.93
2023-05-14T06:15:39.503Z,69.07
2023-05-14T06:16:11.547Z,67.95
2023-05-14T06:16:43.649Z,69.22
2023-05-14T06:17:16.548Z,70.35
2023-05-14T06:17:48.501Z,69.47
2023-05-14T06:18:20.692Z,70.22
2023-05-14T06:18:54.502Z,69.57
2023-05-14T06:19:26.533Z,70.43
2023-05-14T06:19:58.466Z,70.50
2023-05-14T06:20:31.380Z,73.38
2023-05-14T06:21:03.356Z,68.93
2023-05-14T06:21:35.524Z,70.43
2023-05-14T06:22:08.433Z,70.55
2023-05-14T06:22:40.440Z,71.20
2023-05-14T06:23:12.433Z,70.32
2023-05-14T06:23:45.530Z,69.78
2023-05-14T06:24:17.471Z,69.72
2023-05-14T06:24:49.387Z,68.45
2023-05-14T06:25:22.333Z,69.53
2023-05-14T06:25:55.640Z,70.13
2023-05-14T06:26:27.522Z,68.82
2023-05-14T06:27:00.396Z,70.80
2023-05-14T06:27:32.456Z,69.65
2023-05-14T06:28:04.648Z,70.68
2023-05-14T06:28:37.515Z,67.43
2023-05-14T06:29:09.385Z,68.07
2023-05-14T06:29:41.288Z,67.82
2023-05-14T06:30:15.429Z,66.32
2023-05-14T06:30:49.943Z,67.70
2023-05-14T06:31:21.912Z,67.15
2023-05-14T06:31:54.901Z,67.72
2023-05-14T06:32:26.883Z,68.60
2023-05-14T06:32:58.845Z,68.20
2023-05-14T06:33:31.804Z,69.07
2023-05-14T06:34:03.763Z,67.30
2023-05-14T06:34:35.651Z,69.38
2023-05-14T06:35:09.593Z,66.88
2023-05-14T06:35:41.615Z,67.38
2023-05-14T06:36:13.492Z,67.82
2023-05-14T06:36:46.434Z,68.43
2023-05-14T06:37:18.421Z,68.95
2023-05-14T06:37:50.316Z,68.72
2023-05-14T06:38:23.206Z,69.10
2023-05-14T06:38:55.270Z,67.72
2023-05-14T06:39:27.191Z,67.75
2023-05-14T06:40:00.191Z,67.60
2023-05-14T06:40:32.290Z,68.00
2023-05-14T06:41:06.588Z,66.10
2023-05-14T06:41:38.428Z,68.03
2023-05-14T06:42:10.402Z,67.00
2023-05-14T06:42:43.333Z,68.07
2023-05-14T06:43:15.366Z,68.70
2023-05-14T06:43:47.261Z,68.20
2023-05-14T06:44:20.828Z,68.07
2023-05-14T06:44:52.731Z,68.80
2023-05-14T06:45:25.628Z,67.53
2023-05-14T06:45:57.498Z,68.38
2023-05-14T06:46:29.478Z,67.78
2023-05-14T06:47:02.628Z,68.05
2023-05-14T06:47:34.655Z,68.47
2023-05-14T06:48:10.119Z,69.15
2023-05-14T06:48:42.195Z,68.60
2023-05-14T06:49:14.307Z,69.13
2023-05-14T06:49:47.265Z,66.70
2023-05-14T06:50:19.364Z,66.85
2023-05-14T06:50:51.294Z,67.93
2023-05-14T06:51:24.166Z,67.72
2023-05-14T06:51:56.091Z,67.38
2023-05-14T06:52:28.058Z,66.85
2023-05-14T06:53:01.021Z,68.13
2023-05-14T06:53:33.035Z,68.30
2023-05-14T06:54:05.034Z,67.43
2023-05-14T06:54:37.997Z,67.97
2023-05-14T06:55:10.585Z,68.32
2023-05-14T06:55:42.562Z,68.50
2023-05-14T06:56:16.814Z,67.00
2023-05-14T06:56:48.737Z,68.35
2023-05-14T06:57:21.103Z,67.43
2023-05-14T06:57:53.945Z,67.00
2023-05-14T06:58:25.833Z,66.63
2023-05-14T06:58:57.724Z,67.47
2023-05-14T06:59:30.605Z,67.72
2023-05-14T07:00:03.731Z,66.40
2023-05-14T07:00:35.976Z,66.63